Stevens Creek, Virginia
Current Conditions -  °F | °C
As of 9:55 PM on Saturday 25 Oct 2014 (Local Time) from KHLX Reporting Station
Clear Clear  
Wind Chill: 57°   Ceiling: Unl
Heat Index: 57°   Visibility: 10mi
Dew Point: 47°   Wind: 15mph
Humidity: 69%   Direction: 270°W
Pressure: 29.95"   Gusts: 22mph
Location:  36.7333°N, 81.0291°W
Report Text: KHLX 260155Z AUTO 27013G19KT 10SM CLR 14/08 A2995 RMK AO2 T01400083
Loading
Personal Weather Stations






























Interactive Weather Map
Tropical Storm Tracking
New forecast layout! Learn more

10-Day Weather Forecast

Advertisements
Track Severe Weather on mobile